sensor_id;sensor_type;location;lat;lon;timestamp;P1;durP1;ratioP1;P2;durP2;ratioP2
9072;SDS011;4572;41.642;25.370;2023-02-28T00:00:44;18.73;;;7.53;;
9072;SDS011;4572;41.642;25.370;2023-02-28T00:03:09;16.80;;;6.70;;
9072;SDS011;4572;41.642;25.370;2023-02-28T00:05:35;18.80;;;7.43;;
9072;SDS011;4572;41.642;25.370;2023-02-28T00:08:00;21.07;;;7.10;;
9072;SDS011;4572;41.642;25.370;2023-02-28T00:10:27;27.17;;;9.43;;
9072;SDS011;4572;41.642;25.370;2023-02-28T00:12:55;20.10;;;9.83;;
9072;SDS011;4572;41.642;25.370;2023-02-28T00:15:25;25.50;;;9.97;;
9072;SDS011;4572;41.642;25.370;2023-02-28T00:17:50;22.10;;;8.70;;
9072;SDS011;4572;41.642;25.370;2023-02-28T00:20:16;30.97;;;9.10;;
9072;SDS011;4572;41.642;25.370;2023-02-28T00:22:43;20.00;;;7.93;;
9072;SDS011;4572;41.642;25.370;2023-02-28T00:25:10;15.40;;;8.03;;
9072;SDS011;4572;41.642;25.370;2023-02-28T00:27:38;20.03;;;8.77;;
9072;SDS011;4572;41.642;25.370;2023-02-28T00:30:05;20.33;;;8.13;;
9072;SDS011;4572;41.642;25.370;2023-02-28T00:32:32;17.50;;;7.70;;
9072;SDS011;4572;41.642;25.370;2023-02-28T00:34:57;20.10;;;7.30;;
9072;SDS011;4572;41.642;25.370;2023-02-28T00:37:23;25.57;;;8.13;;
9072;SDS011;4572;41.642;25.370;2023-02-28T00:39:48;17.90;;;7.47;;
9072;SDS011;4572;41.642;25.370;2023-02-28T00:42:14;21.10;;;7.80;;
9072;SDS011;4572;41.642;25.370;2023-02-28T00:44:39;19.67;;;7.40;;
9072;SDS011;4572;41.642;25.370;2023-02-28T00:47:05;19.20;;;8.53;;
9072;SDS011;4572;41.642;25.370;2023-02-28T00:49:30;21.90;;;7.33;;
9072;SDS011;4572;41.642;25.370;2023-02-28T00:51:56;25.87;;;8.83;;
9072;SDS011;4572;41.642;25.370;2023-02-28T00:54:22;19.97;;;8.10;;
9072;SDS011;4572;41.642;25.370;2023-02-28T00:56:48;19.03;;;8.37;;
9072;SDS011;4572;41.642;25.370;2023-02-28T00:59:15;23.20;;;8.50;;
9072;SDS011;4572;41.642;25.370;2023-02-28T01:01:41;20.90;;;8.03;;
9072;SDS011;4572;41.642;25.370;2023-02-28T01:04:07;21.30;;;8.63;;
9072;SDS011;4572;41.642;25.370;2023-02-28T01:06:33;25.93;;;8.70;;
9072;SDS011;4572;41.642;25.370;2023-02-28T01:08:59;28.70;;;8.07;;
9072;SDS011;4572;41.642;25.370;2023-02-28T01:11:24;21.13;;;7.53;;
9072;SDS011;4572;41.642;25.370;2023-02-28T01:13:50;25.60;;;7.30;;
9072;SDS011;4572;41.642;25.370;2023-02-28T01:16:15;22.97;;;7.07;;
9072;SDS011;4572;41.642;25.370;2023-02-28T01:18:41;20.63;;;7.13;;
9072;SDS011;4572;41.642;25.370;2023-02-28T01:21:08;25.13;;;6.67;;
9072;SDS011;4572;41.642;25.370;2023-02-28T01:23:35;16.17;;;5.93;;
9072;SDS011;4572;41.642;25.370;2023-02-28T01:26:08;16.57;;;6.83;;
9072;SDS011;4572;41.642;25.370;2023-02-28T01:28:35;18.03;;;6.53;;
9072;SDS011;4572;41.642;25.370;2023-02-28T01:31:00;20.30;;;6.80;;
9072;SDS011;4572;41.642;25.370;2023-02-28T01:33:26;22.13;;;7.23;;
9072;SDS011;4572;41.642;25.370;2023-02-28T01:36:01;16.30;;;6.70;;
9072;SDS011;4572;41.642;25.370;2023-02-28T01:38:33;21.87;;;7.20;;
9072;SDS011;4572;41.642;25.370;2023-02-28T01:40:59;21.53;;;6.80;;
9072;SDS011;4572;41.642;25.370;2023-02-28T01:43:26;24.17;;;7.87;;
9072;SDS011;4572;41.642;25.370;2023-02-28T01:45:53;16.90;;;6.13;;
9072;SDS011;4572;41.642;25.370;2023-02-28T01:48:21;25.87;;;7.13;;
9072;SDS011;4572;41.642;25.370;2023-02-28T01:50:51;19.53;;;6.30;;
9072;SDS011;4572;41.642;25.370;2023-02-28T01:53:18;23.03;;;6.70;;
9072;SDS011;4572;41.642;25.370;2023-02-28T01:55:48;16.13;;;6.23;;
9072;SDS011;4572;41.642;25.370;2023-02-28T01:58:15;19.63;;;7.03;;
9072;SDS011;4572;41.642;25.370;2023-02-28T02:00:41;16.87;;;7.13;;
9072;SDS011;4572;41.642;25.370;2023-02-28T02:03:08;20.97;;;7.07;;
9072;SDS011;4572;41.642;25.370;2023-02-28T02:05:35;17.43;;;7.83;;
9072;SDS011;4572;41.642;25.370;2023-02-28T02:08:09;22.13;;;7.23;;
9072;SDS011;4572;41.642;25.370;2023-02-28T02:10:41;22.43;;;8.37;;
9072;SDS011;4572;41.642;25.370;2023-02-28T02:24:06;17.53;;;7.53;;
9072;SDS011;4572;41.642;25.370;2023-02-28T02:26:39;24.63;;;6.77;;
9072;SDS011;4572;41.642;25.370;2023-02-28T02:35:30;26.00;;;8.00;;
9072;SDS011;4572;41.642;25.370;2023-02-28T02:37:45;27.17;;;7.10;;
9072;SDS011;4572;41.642;25.370;2023-02-28T02:40:16;19.77;;;6.67;;
9072;SDS011;4572;41.642;25.370;2023-02-28T02:42:47;24.37;;;7.07;;
9072;SDS011;4572;41.642;25.370;2023-02-28T02:47:50;18.73;;;6.33;;
9072;SDS011;4572;41.642;25.370;2023-02-28T02:50:21;17.17;;;6.90;;
9072;SDS011;4572;41.642;25.370;2023-02-28T02:52:51;19.10;;;5.50;;
9072;SDS011;4572;41.642;25.370;2023-02-28T02:55:18;34.93;;;9.83;;
9072;SDS011;4572;41.642;25.370;2023-02-28T02:57:46;22.23;;;7.83;;
9072;SDS011;4572;41.642;25.370;2023-02-28T03:00:14;20.07;;;7.30;;
9072;SDS011;4572;41.642;25.370;2023-02-28T03:02:42;20.33;;;7.33;;
9072;SDS011;4572;41.642;25.370;2023-02-28T03:05:12;19.90;;;6.73;;
9072;SDS011;4572;41.642;25.370;2023-02-28T03:07:42;24.67;;;7.20;;
9072;SDS011;4572;41.642;25.370;2023-02-28T03:10:30;22.83;;;7.57;;
9072;SDS011;4572;41.642;25.370;2023-02-28T03:19:01;22.60;;;5.20;;
9072;SDS011;4572;41.642;25.370;2023-02-28T03:24:52;18.67;;;5.83;;
9072;SDS011;4572;41.642;25.370;2023-02-28T03:27:29;23.73;;;5.03;;
9072;SDS011;4572;41.642;25.370;2023-02-28T03:30:00;18.20;;;6.30;;
9072;SDS011;4572;41.642;25.370;2023-02-28T03:32:38;23.13;;;5.33;;
9072;SDS011;4572;41.642;25.370;2023-02-28T03:35:07;22.53;;;5.37;;
9072;SDS011;4572;41.642;25.370;2023-02-28T03:37:35;25.27;;;5.93;;
9072;SDS011;4572;41.642;25.370;2023-02-28T03:40:04;18.53;;;6.10;;
9072;SDS011;4572;41.642;25.370;2023-02-28T03:42:34;16.27;;;6.57;;
9072;SDS011;4572;41.642;25.370;2023-02-28T03:45:02;19.83;;;6.30;;
9072;SDS011;4572;41.642;25.370;2023-02-28T03:50:05;21.63;;;6.03;;
9072;SDS011;4572;41.642;25.370;2023-02-28T03:52:34;22.13;;;6.23;;
9072;SDS011;4572;41.642;25.370;2023-02-28T03:55:03;20.20;;;6.73;;
9072;SDS011;4572;41.642;25.370;2023-02-28T04:00:31;19.37;;;6.80;;
9072;SDS011;4572;41.642;25.370;2023-02-28T04:03:02;17.30;;;7.33;;
9072;SDS011;4572;41.642;25.370;2023-02-28T04:05:27;15.53;;;7.40;;
9072;SDS011;4572;41.642;25.370;2023-02-28T04:07:53;18.10;;;8.07;;
9072;SDS011;4572;41.642;25.370;2023-02-28T04:10:19;18.03;;;7.50;;
9072;SDS011;4572;41.642;25.370;2023-02-28T04:12:44;21.00;;;10.50;;
9072;SDS011;4572;41.642;25.370;2023-02-28T04:15:10;12.77;;;8.33;;
9072;SDS011;4572;41.642;25.370;2023-02-28T04:17:36;16.53;;;8.67;;
9072;SDS011;4572;41.642;25.370;2023-02-28T04:20:02;13.23;;;8.63;;
9072;SDS011;4572;41.642;25.370;2023-02-28T04:22:28;13.23;;;8.77;;
9072;SDS011;4572;41.642;25.370;2023-02-28T04:24:54;17.80;;;9.27;;
9072;SDS011;4572;41.642;25.370;2023-02-28T04:27:20;17.87;;;9.47;;
9072;SDS011;4572;41.642;25.370;2023-02-28T04:29:46;19.87;;;9.33;;
9072;SDS011;4572;41.642;25.370;2023-02-28T04:32:12;22.07;;;8.93;;
9072;SDS011;4572;41.642;25.370;2023-02-28T04:34:38;14.33;;;9.27;;
9072;SDS011;4572;41.642;25.370;2023-02-28T04:37:04;16.47;;;10.40;;
9072;SDS011;4572;41.642;25.370;2023-02-28T04:39:30;18.60;;;9.20;;
9072;SDS011;4572;41.642;25.370;2023-02-28T04:41:55;21.77;;;10.47;;
9072;SDS011;4572;41.642;25.370;2023-02-28T04:44:21;15.27;;;9.20;;
9072;SDS011;4572;41.642;25.370;2023-02-28T04:46:48;15.30;;;9.17;;
9072;SDS011;4572;41.642;25.370;2023-02-28T04:49:13;13.80;;;9.83;;
9072;SDS011;4572;41.642;25.370;2023-02-28T04:51:39;16.53;;;9.87;;
9072;SDS011;4572;41.642;25.370;2023-02-28T04:54:05;16.47;;;10.73;;
9072;SDS011;4572;41.642;25.370;2023-02-28T04:56:30;18.00;;;9.60;;
9072;SDS011;4572;41.642;25.370;2023-02-28T04:58:56;14.63;;;9.70;;
9072;SDS011;4572;41.642;25.370;2023-02-28T05:03:52;19.90;;;8.00;;
9072;SDS011;4572;41.642;25.370;2023-02-28T05:06:19;17.53;;;9.10;;
9072;SDS011;4572;41.642;25.370;2023-02-28T05:08:45;16.37;;;8.93;;
9072;SDS011;4572;41.642;25.370;2023-02-28T05:11:15;16.13;;;9.60;;
9072;SDS011;4572;41.642;25.370;2023-02-28T05:13:41;18.47;;;9.70;;
9072;SDS011;4572;41.642;25.370;2023-02-28T05:16:07;18.37;;;10.50;;
9072;SDS011;4572;41.642;25.370;2023-02-28T05:18:32;15.90;;;11.00;;
9072;SDS011;4572;41.642;25.370;2023-02-28T05:20:58;16.90;;;10.53;;
9072;SDS011;4572;41.642;25.370;2023-02-28T05:23:27;19.00;;;10.53;;
9072;SDS011;4572;41.642;25.370;2023-02-28T05:25:53;17.27;;;10.63;;
9072;SDS011;4572;41.642;25.370;2023-02-28T05:28:19;19.20;;;12.13;;
9072;SDS011;4572;41.642;25.370;2023-02-28T05:30:44;14.53;;;10.53;;
9072;SDS011;4572;41.642;25.370;2023-02-28T05:33:11;18.43;;;11.67;;
9072;SDS011;4572;41.642;25.370;2023-02-28T05:35:38;17.03;;;11.80;;
9072;SDS011;4572;41.642;25.370;2023-02-28T05:38:04;18.33;;;11.27;;
9072;SDS011;4572;41.642;25.370;2023-02-28T05:40:30;17.70;;;10.80;;
9072;SDS011;4572;41.642;25.370;2023-02-28T05:42:55;21.10;;;11.07;;
9072;SDS011;4572;41.642;25.370;2023-02-28T05:45:21;22.20;;;11.37;;
9072;SDS011;4572;41.642;25.370;2023-02-28T05:47:46;17.63;;;11.37;;
9072;SDS011;4572;41.642;25.370;2023-02-28T05:50:12;22.03;;;11.87;;
9072;SDS011;4572;41.642;25.370;2023-02-28T05:52:37;20.90;;;11.20;;
9072;SDS011;4572;41.642;25.370;2023-02-28T05:55:03;22.37;;;11.43;;
9072;SDS011;4572;41.642;25.370;2023-02-28T05:57:29;23.97;;;11.30;;
9072;SDS011;4572;41.642;25.370;2023-02-28T05:59:54;16.33;;;10.50;;
9072;SDS011;4572;41.642;25.370;2023-02-28T06:02:20;21.00;;;10.07;;
9072;SDS011;4572;41.642;25.370;2023-02-28T06:04:46;12.80;;;8.60;;
9072;SDS011;4572;41.642;25.370;2023-02-28T06:07:11;17.97;;;9.17;;
9072;SDS011;4572;41.642;25.370;2023-02-28T06:09:37;17.23;;;8.37;;
9072;SDS011;4572;41.642;25.370;2023-02-28T06:12:04;15.60;;;8.70;;
9072;SDS011;4572;41.642;25.370;2023-02-28T06:14:32;14.97;;;8.20;;
9072;SDS011;4572;41.642;25.370;2023-02-28T06:16:59;16.40;;;8.47;;
9072;SDS011;4572;41.642;25.370;2023-02-28T06:19:25;14.53;;;9.03;;
9072;SDS011;4572;41.642;25.370;2023-02-28T06:21:51;15.50;;;9.17;;
9072;SDS011;4572;41.642;25.370;2023-02-28T06:24:18;15.13;;;9.80;;
9072;SDS011;4572;41.642;25.370;2023-02-28T06:26:44;17.63;;;9.10;;
9072;SDS011;4572;41.642;25.370;2023-02-28T06:29:10;14.90;;;9.00;;
9072;SDS011;4572;41.642;25.370;2023-02-28T06:31:35;17.63;;;9.60;;
9072;SDS011;4572;41.642;25.370;2023-02-28T06:34:01;19.77;;;9.43;;
9072;SDS011;4572;41.642;25.370;2023-02-28T06:36:26;12.20;;;8.10;;
9072;SDS011;4572;41.642;25.370;2023-02-28T06:38:53;17.17;;;8.87;;
9072;SDS011;4572;41.642;25.370;2023-02-28T06:41:24;12.43;;;8.93;;
9072;SDS011;4572;41.642;25.370;2023-02-28T06:43:51;15.40;;;9.13;;
9072;SDS011;4572;41.642;25.370;2023-02-28T06:46:17;16.87;;;8.13;;
9072;SDS011;4572;41.642;25.370;2023-02-28T06:48:43;15.47;;;9.00;;
9072;SDS011;4572;41.642;25.370;2023-02-28T06:51:10;16.13;;;8.93;;
9072;SDS011;4572;41.642;25.370;2023-02-28T06:53:38;19.97;;;9.93;;
9072;SDS011;4572;41.642;25.370;2023-02-28T06:56:05;14.93;;;9.20;;
9072;SDS011;4572;41.642;25.370;2023-02-28T06:58:35;16.83;;;10.07;;
9072;SDS011;4572;41.642;25.370;2023-02-28T07:01:01;19.23;;;10.00;;
9072;SDS011;4572;41.642;25.370;2023-02-28T07:03:27;19.13;;;10.20;;
9072;SDS011;4572;41.642;25.370;2023-02-28T07:05:52;13.63;;;9.73;;
9072;SDS011;4572;41.642;25.370;2023-02-28T07:08:18;15.53;;;10.03;;
9072;SDS011;4572;41.642;25.370;2023-02-28T07:10:43;15.50;;;9.23;;
9072;SDS011;4572;41.642;25.370;2023-02-28T07:13:09;15.17;;;9.97;;
9072;SDS011;4572;41.642;25.370;2023-02-28T07:15:36;17.57;;;9.77;;
9072;SDS011;4572;41.642;25.370;2023-02-28T07:18:02;17.97;;;11.23;;
9072;SDS011;4572;41.642;25.370;2023-02-28T07:20:28;18.77;;;12.03;;
9072;SDS011;4572;41.642;25.370;2023-02-28T07:22:54;15.07;;;11.23;;
9072;SDS011;4572;41.642;25.370;2023-02-28T07:25:27;16.77;;;11.23;;
9072;SDS011;4572;41.642;25.370;2023-02-28T07:27:53;18.80;;;11.70;;
9072;SDS011;4572;41.642;25.370;2023-02-28T07:30:20;18.97;;;12.40;;
9072;SDS011;4572;41.642;25.370;2023-02-28T07:32:46;21.30;;;12.60;;
9072;SDS011;4572;41.642;25.370;2023-02-28T07:35:11;26.53;;;14.10;;
9072;SDS011;4572;41.642;25.370;2023-02-28T07:37:37;18.40;;;13.30;;
9072;SDS011;4572;41.642;25.370;2023-02-28T07:40:03;20.90;;;12.40;;
9072;SDS011;4572;41.642;25.370;2023-02-28T07:42:31;21.77;;;13.50;;
9072;SDS011;4572;41.642;25.370;2023-02-28T07:44:57;21.13;;;13.63;;
9072;SDS011;4572;41.642;25.370;2023-02-28T07:47:24;20.97;;;13.37;;
9072;SDS011;4572;41.642;25.370;2023-02-28T07:49:49;22.40;;;13.90;;
9072;SDS011;4572;41.642;25.370;2023-02-28T07:52:15;25.20;;;13.77;;
9072;SDS011;4572;41.642;25.370;2023-02-28T07:54:40;21.00;;;14.00;;
9072;SDS011;4572;41.642;25.370;2023-02-28T07:57:05;23.37;;;14.53;;
9072;SDS011;4572;41.642;25.370;2023-02-28T07:59:31;24.40;;;15.03;;
9072;SDS011;4572;41.642;25.370;2023-02-28T08:01:57;22.37;;;14.03;;
9072;SDS011;4572;41.642;25.370;2023-02-28T08:04:23;21.47;;;13.93;;
9072;SDS011;4572;41.642;25.370;2023-02-28T08:06:48;17.90;;;13.53;;
9072;SDS011;4572;41.642;25.370;2023-02-28T08:09:17;20.80;;;13.97;;
9072;SDS011;4572;41.642;25.370;2023-02-28T08:11:42;25.97;;;16.00;;
9072;SDS011;4572;41.642;25.370;2023-02-28T08:14:08;24.57;;;16.70;;
9072;SDS011;4572;41.642;25.370;2023-02-28T08:16:33;25.63;;;16.53;;
9072;SDS011;4572;41.642;25.370;2023-02-28T08:18:59;26.47;;;16.90;;
9072;SDS011;4572;41.642;25.370;2023-02-28T08:21:24;18.30;;;12.70;;
9072;SDS011;4572;41.642;25.370;2023-02-28T08:23:50;16.67;;;11.53;;
9072;SDS011;4572;41.642;25.370;2023-02-28T08:26:17;12.77;;;10.47;;
9072;SDS011;4572;41.642;25.370;2023-02-28T08:28:42;18.00;;;11.33;;
9072;SDS011;4572;41.642;25.370;2023-02-28T08:31:10;17.97;;;9.80;;
9072;SDS011;4572;41.642;25.370;2023-02-28T08:33:36;13.77;;;9.33;;
9072;SDS011;4572;41.642;25.370;2023-02-28T08:36:04;14.27;;;10.07;;
9072;SDS011;4572;41.642;25.370;2023-02-28T08:38:30;13.30;;;11.03;;
9072;SDS011;4572;41.642;25.370;2023-02-28T08:41:06;17.17;;;12.07;;
9072;SDS011;4572;41.642;25.370;2023-02-28T08:43:34;16.53;;;11.77;;
9072;SDS011;4572;41.642;25.370;2023-02-28T08:46:00;17.20;;;12.73;;
9072;SDS011;4572;41.642;25.370;2023-02-28T08:48:26;15.50;;;11.83;;
9072;SDS011;4572;41.642;25.370;2023-02-28T08:50:57;16.87;;;11.87;;
9072;SDS011;4572;41.642;25.370;2023-02-28T08:53:22;20.43;;;11.63;;
9072;SDS011;4572;41.642;25.370;2023-02-28T08:55:58;16.07;;;11.97;;
9072;SDS011;4572;41.642;25.370;2023-02-28T08:58:25;15.73;;;11.73;;
9072;SDS011;4572;41.642;25.370;2023-02-28T09:00:51;13.97;;;10.07;;
9072;SDS011;4572;41.642;25.370;2023-02-28T09:03:16;13.30;;;10.53;;
9072;SDS011;4572;41.642;25.370;2023-02-28T09:05:51;14.20;;;10.37;;
9072;SDS011;4572;41.642;25.370;2023-02-28T09:08:20;14.50;;;10.57;;
9072;SDS011;4572;41.642;25.370;2023-02-28T09:10:46;13.10;;;10.50;;
9072;SDS011;4572;41.642;25.370;2023-02-28T09:13:12;12.77;;;10.07;;
9072;SDS011;4572;41.642;25.370;2023-02-28T09:15:38;13.83;;;10.27;;
9072;SDS011;4572;41.642;25.370;2023-02-28T09:18:03;15.03;;;11.00;;
9072;SDS011;4572;41.642;25.370;2023-02-28T09:20:29;14.50;;;10.83;;
9072;SDS011;4572;41.642;25.370;2023-02-28T09:22:54;13.27;;;11.00;;
9072;SDS011;4572;41.642;25.370;2023-02-28T09:25:20;19.30;;;11.93;;
9072;SDS011;4572;41.642;25.370;2023-02-28T09:27:46;15.57;;;10.97;;
9072;SDS011;4572;41.642;25.370;2023-02-28T09:30:11;16.07;;;11.53;;
9072;SDS011;4572;41.642;25.370;2023-02-28T09:32:37;15.37;;;10.87;;
9072;SDS011;4572;41.642;25.370;2023-02-28T09:35:03;19.70;;;11.83;;
9072;SDS011;4572;41.642;25.370;2023-02-28T09:37:29;15.50;;;10.87;;
9072;SDS011;4572;41.642;25.370;2023-02-28T09:39:56;19.53;;;12.20;;
9072;SDS011;4572;41.642;25.370;2023-02-28T09:42:23;21.20;;;11.00;;
9072;SDS011;4572;41.642;25.370;2023-02-28T09:44:52;14.83;;;11.60;;
9072;SDS011;4572;41.642;25.370;2023-02-28T09:47:23;18.87;;;12.93;;
9072;SDS011;4572;41.642;25.370;2023-02-28T09:49:53;19.37;;;12.03;;
9072;SDS011;4572;41.642;25.370;2023-02-28T09:52:21;19.80;;;13.30;;
9072;SDS011;4572;41.642;25.370;2023-02-28T09:54:53;18.63;;;12.73;;
9072;SDS011;4572;41.642;25.370;2023-02-28T09:57:33;24.90;;;17.13;;
9072;SDS011;4572;41.642;25.370;2023-02-28T10:05:28;18.37;;;13.77;;
9072;SDS011;4572;41.642;25.370;2023-02-28T10:13:16;16.33;;;13.20;;
9072;SDS011;4572;41.642;25.370;2023-02-28T10:15:46;20.57;;;12.97;;
9072;SDS011;4572;41.642;25.370;2023-02-28T10:18:14;17.90;;;13.17;;
9072;SDS011;4572;41.642;25.370;2023-02-28T10:20:43;18.93;;;13.83;;
9072;SDS011;4572;41.642;25.370;2023-02-28T10:23:24;18.03;;;13.23;;
9072;SDS011;4572;41.642;25.370;2023-02-28T10:25:54;17.07;;;13.13;;
9072;SDS011;4572;41.642;25.370;2023-02-28T10:28:44;17.07;;;12.93;;
9072;SDS011;4572;41.642;25.370;2023-02-28T10:31:17;22.63;;;14.40;;
9072;SDS011;4572;41.642;25.370;2023-02-28T10:33:44;20.43;;;12.70;;
9072;SDS011;4572;41.642;25.370;2023-02-28T10:36:12;20.80;;;14.47;;
9072;SDS011;4572;41.642;25.370;2023-02-28T10:38:41;20.00;;;12.73;;
9072;SDS011;4572;41.642;25.370;2023-02-28T10:41:15;18.50;;;13.83;;
9072;SDS011;4572;41.642;25.370;2023-02-28T10:43:42;24.00;;;15.53;;
9072;SDS011;4572;41.642;25.370;2023-02-28T10:48:39;27.43;;;18.03;;
9072;SDS011;4572;41.642;25.370;2023-02-28T10:51:16;32.20;;;19.50;;
9072;SDS011;4572;41.642;25.370;2023-02-28T10:53:48;29.27;;;18.87;;
9072;SDS011;4572;41.642;25.370;2023-02-28T10:56:17;32.30;;;20.27;;
9072;SDS011;4572;41.642;25.370;2023-02-28T11:06:48;22.03;;;14.77;;
9072;SDS011;4572;41.642;25.370;2023-02-28T11:09:36;22.30;;;14.93;;
9072;SDS011;4572;41.642;25.370;2023-02-28T11:12:04;21.87;;;12.97;;
9072;SDS011;4572;41.642;25.370;2023-02-28T11:14:33;16.03;;;13.03;;
9072;SDS011;4572;41.642;25.370;2023-02-28T11:17:13;18.43;;;13.13;;
9072;SDS011;4572;41.642;25.370;2023-02-28T11:19:45;18.03;;;12.50;;
9072;SDS011;4572;41.642;25.370;2023-02-28T11:22:17;18.20;;;12.00;;
9072;SDS011;4572;41.642;25.370;2023-02-28T11:24:44;19.40;;;13.00;;
9072;SDS011;4572;41.642;25.370;2023-02-28T11:27:24;22.17;;;12.97;;
9072;SDS011;4572;41.642;25.370;2023-02-28T11:29:50;18.57;;;12.87;;
9072;SDS011;4572;41.642;25.370;2023-02-28T11:32:18;18.40;;;12.70;;
9072;SDS011;4572;41.642;25.370;2023-02-28T11:35:10;16.00;;;12.53;;
9072;SDS011;4572;41.642;25.370;2023-02-28T11:37:40;18.10;;;11.07;;
9072;SDS011;4572;41.642;25.370;2023-02-28T11:40:13;13.17;;;10.07;;
9072;SDS011;4572;41.642;25.370;2023-02-28T11:45:36;10.93;;;8.00;;
9072;SDS011;4572;41.642;25.370;2023-02-28T11:59:46;12.43;;;8.47;;
9072;SDS011;4572;41.642;25.370;2023-02-28T12:05:08;20.53;;;14.33;;
9072;SDS011;4572;41.642;25.370;2023-02-28T12:22:18;12.23;;;7.30;;
9072;SDS011;4572;41.642;25.370;2023-02-28T12:27:00;7.93;;;5.83;;
9072;SDS011;4572;41.642;25.370;2023-02-28T12:29:29;6.80;;;5.40;;
9072;SDS011;4572;41.642;25.370;2023-02-28T12:32:05;7.73;;;5.57;;
9072;SDS011;4572;41.642;25.370;2023-02-28T12:34:38;6.93;;;5.63;;
9072;SDS011;4572;41.642;25.370;2023-02-28T12:37:11;8.00;;;5.73;;
9072;SDS011;4572;41.642;25.370;2023-02-28T12:39:41;6.23;;;5.63;;
9072;SDS011;4572;41.642;25.370;2023-02-28T12:42:10;12.50;;;5.70;;
9072;SDS011;4572;41.642;25.370;2023-02-28T12:44:59;9.77;;;5.93;;
9072;SDS011;4572;41.642;25.370;2023-02-28T12:47:26;15.10;;;11.33;;
9072;SDS011;4572;41.642;25.370;2023-02-28T12:49:54;20.63;;;16.13;;
9072;SDS011;4572;41.642;25.370;2023-02-28T12:53:09;9.80;;;6.60;;
9072;SDS011;4572;41.642;25.370;2023-02-28T13:00:15;7.77;;;6.97;;
9072;SDS011;4572;41.642;25.370;2023-02-28T13:11:02;15.27;;;8.53;;
9072;SDS011;4572;41.642;25.370;2023-02-28T13:13:29;11.20;;;7.47;;
9072;SDS011;4572;41.642;25.370;2023-02-28T13:18:32;16.03;;;11.50;;
9072;SDS011;4572;41.642;25.370;2023-02-28T13:21:02;9.80;;;7.30;;
9072;SDS011;4572;41.642;25.370;2023-02-28T13:24:13;10.47;;;7.37;;
9072;SDS011;4572;41.642;25.370;2023-02-28T13:29:02;7.83;;;6.77;;
9072;SDS011;4572;41.642;25.370;2023-02-28T13:34:32;8.53;;;6.63;;
9072;SDS011;4572;41.642;25.370;2023-02-28T13:58:41;13.60;;;8.40;;
9072;SDS011;4572;41.642;25.370;2023-02-28T14:06:51;12.47;;;9.83;;
9072;SDS011;4572;41.642;25.370;2023-02-28T14:09:28;7.60;;;6.50;;
9072;SDS011;4572;41.642;25.370;2023-02-28T14:11:57;8.77;;;6.53;;
9072;SDS011;4572;41.642;25.370;2023-02-28T14:15:01;9.20;;;7.10;;
9072;SDS011;4572;41.642;25.370;2023-02-28T14:17:26;7.30;;;6.00;;
9072;SDS011;4572;41.642;25.370;2023-02-28T14:19:52;9.13;;;7.50;;
9072;SDS011;4572;41.642;25.370;2023-02-28T14:24:59;9.63;;;7.80;;
9072;SDS011;4572;41.642;25.370;2023-02-28T14:30:26;8.20;;;7.17;;
9072;SDS011;4572;41.642;25.370;2023-02-28T14:41:18;7.70;;;6.73;;
9072;SDS011;4572;41.642;25.370;2023-02-28T14:43:54;7.70;;;6.80;;
9072;SDS011;4572;41.642;25.370;2023-02-28T14:46:22;9.57;;;6.73;;
9072;SDS011;4572;41.642;25.370;2023-02-28T14:48:51;8.60;;;7.70;;
9072;SDS011;4572;41.642;25.370;2023-02-28T14:51:18;8.37;;;7.47;;
9072;SDS011;4572;41.642;25.370;2023-02-28T14:53:48;8.20;;;6.90;;
9072;SDS011;4572;41.642;25.370;2023-02-28T14:56:19;13.83;;;7.40;;
9072;SDS011;4572;41.642;25.370;2023-02-28T14:58:51;12.20;;;7.63;;
9072;SDS011;4572;41.642;25.370;2023-02-28T15:01:19;11.90;;;7.90;;
9072;SDS011;4572;41.642;25.370;2023-02-28T15:03:46;8.93;;;7.73;;
9072;SDS011;4572;41.642;25.370;2023-02-28T15:06:16;9.23;;;7.57;;
9072;SDS011;4572;41.642;25.370;2023-02-28T15:08:43;18.80;;;13.37;;
9072;SDS011;4572;41.642;25.370;2023-02-28T15:11:13;9.80;;;7.70;;
9072;SDS011;4572;41.642;25.370;2023-02-28T15:13:42;9.20;;;7.57;;
9072;SDS011;4572;41.642;25.370;2023-02-28T15:19:02;14.93;;;10.70;;
9072;SDS011;4572;41.642;25.370;2023-02-28T15:21:32;12.00;;;7.77;;
9072;SDS011;4572;41.642;25.370;2023-02-28T15:26:58;12.53;;;9.13;;
9072;SDS011;4572;41.642;25.370;2023-02-28T15:29:26;17.47;;;15.30;;
9072;SDS011;4572;41.642;25.370;2023-02-28T15:31:58;12.60;;;11.17;;
9072;SDS011;4572;41.642;25.370;2023-02-28T15:34:27;12.93;;;10.63;;
9072;SDS011;4572;41.642;25.370;2023-02-28T15:36:58;11.90;;;9.73;;
9072;SDS011;4572;41.642;25.370;2023-02-28T15:39:25;19.80;;;13.87;;
9072;SDS011;4572;41.642;25.370;2023-02-28T15:44:56;17.20;;;13.23;;
9072;SDS011;4572;41.642;25.370;2023-02-28T15:47:23;13.30;;;9.73;;
9072;SDS011;4572;41.642;25.370;2023-02-28T15:49:54;11.27;;;8.97;;
9072;SDS011;4572;41.642;25.370;2023-02-28T15:52:33;13.87;;;10.93;;
9072;SDS011;4572;41.642;25.370;2023-02-28T15:57:55;14.67;;;10.90;;
9072;SDS011;4572;41.642;25.370;2023-02-28T16:00:25;12.13;;;9.03;;
9072;SDS011;4572;41.642;25.370;2023-02-28T16:02:51;11.53;;;8.30;;
9072;SDS011;4572;41.642;25.370;2023-02-28T16:05:22;9.27;;;8.30;;
9072;SDS011;4572;41.642;25.370;2023-02-28T16:07:59;7.50;;;6.47;;
9072;SDS011;4572;41.642;25.370;2023-02-28T16:10:39;8.57;;;6.50;;
9072;SDS011;4572;41.642;25.370;2023-02-28T16:13:04;9.77;;;7.20;;
9072;SDS011;4572;41.642;25.370;2023-02-28T16:15:31;10.60;;;7.57;;
9072;SDS011;4572;41.642;25.370;2023-02-28T16:18:07;7.87;;;6.63;;
9072;SDS011;4572;41.642;25.370;2023-02-28T16:20:33;8.13;;;6.03;;
9072;SDS011;4572;41.642;25.370;2023-02-28T16:22:59;6.77;;;6.03;;
9072;SDS011;4572;41.642;25.370;2023-02-28T16:25:29;9.70;;;5.93;;
9072;SDS011;4572;41.642;25.370;2023-02-28T16:28:00;5.93;;;5.30;;
9072;SDS011;4572;41.642;25.370;2023-02-28T16:30:26;8.37;;;5.87;;
9072;SDS011;4572;41.642;25.370;2023-02-28T16:32:53;5.10;;;4.53;;
9072;SDS011;4572;41.642;25.370;2023-02-28T16:35:20;5.83;;;4.77;;
9072;SDS011;4572;41.642;25.370;2023-02-28T16:37:46;6.90;;;4.80;;
9072;SDS011;4572;41.642;25.370;2023-02-28T16:40:16;8.23;;;6.20;;
9072;SDS011;4572;41.642;25.370;2023-02-28T16:42:43;7.17;;;6.30;;
9072;SDS011;4572;41.642;25.370;2023-02-28T16:45:14;9.47;;;5.87;;
9072;SDS011;4572;41.642;25.370;2023-02-28T16:47:44;9.33;;;6.30;;
9072;SDS011;4572;41.642;25.370;2023-02-28T16:50:14;7.60;;;6.10;;
9072;SDS011;4572;41.642;25.370;2023-02-28T16:52:44;8.17;;;6.90;;
9072;SDS011;4572;41.642;25.370;2023-02-28T16:55:09;6.90;;;5.77;;
9072;SDS011;4572;41.642;25.370;2023-02-28T16:57:35;9.67;;;8.33;;
9072;SDS011;4572;41.642;25.370;2023-02-28T17:00:01;9.73;;;6.43;;
9072;SDS011;4572;41.642;25.370;2023-02-28T17:02:27;11.80;;;7.13;;
9072;SDS011;4572;41.642;25.370;2023-02-28T17:04:53;9.90;;;7.03;;
9072;SDS011;4572;41.642;25.370;2023-02-28T17:07:18;10.07;;;7.20;;
9072;SDS011;4572;41.642;25.370;2023-02-28T17:09:44;11.20;;;7.57;;
9072;SDS011;4572;41.642;25.370;2023-02-28T17:12:10;10.07;;;7.80;;
9072;SDS011;4572;41.642;25.370;2023-02-28T17:14:36;10.30;;;7.80;;
9072;SDS011;4572;41.642;25.370;2023-02-28T17:17:03;18.17;;;8.53;;
9072;SDS011;4572;41.642;25.370;2023-02-28T17:19:30;11.53;;;8.67;;
9072;SDS011;4572;41.642;25.370;2023-02-28T17:21:55;8.17;;;7.10;;
9072;SDS011;4572;41.642;25.370;2023-02-28T17:24:21;11.30;;;6.90;;
9072;SDS011;4572;41.642;25.370;2023-02-28T17:26:46;5.57;;;4.57;;
9072;SDS011;4572;41.642;25.370;2023-02-28T17:29:16;7.77;;;5.80;;
9072;SDS011;4572;41.642;25.370;2023-02-28T17:31:43;5.53;;;3.40;;
9072;SDS011;4572;41.642;25.370;2023-02-28T17:34:09;5.33;;;3.20;;
9072;SDS011;4572;41.642;25.370;2023-02-28T17:36:35;3.63;;;3.07;;
9072;SDS011;4572;41.642;25.370;2023-02-28T17:39:03;5.60;;;3.53;;